Time;durP1;ratioP1;P1;durP2;ratioP2;P2;SDS_P1;SDS_P2;PMS_P1;PMS_P2;Temp;Humidity;BMP_temperature;BMP_pressure;BME280_temperature;BME280_humidity;BME280_pressure;Samples;Min_cycle;Max_cycle;Signal;HPM_P1;HPM_P2
2021/09/12 00:01:25;;;;;;;9.45;6.50;;;;;;;13.16;72.79;97765.23;1679121;85;21438;-75
2021/09/12 00:03:52;;;;;;;11.12;6.53;;;;;;;13.14;73.44;97764.45;1693489;85;20987;-75
2021/09/12 00:06:18;;;;;;;8.70;6.65;;;;;;;13.04;74.98;97761.31;1694614;85;21055;-75
2021/09/12 00:08:44;;;;;;;9.15;6.60;;;;;;;13.01;73.93;97755.27;1694223;83;20990;-75
2021/09/12 00:11:11;;;;;;;11.93;7.28;;;;;;;12.98;74.92;97762.03;1692705;85;20996;-75
2021/09/12 00:13:37;;;;;;;9.48;6.60;;;;;;;12.97;73.82;97763.85;1694579;85;21489;-75
2021/09/12 00:16:04;;;;;;;10.25;6.72;;;;;;;12.97;74.04;97760.31;1694315;85;20991;-75
2021/09/12 00:18:30;;;;;;;11.15;6.62;;;;;;;12.94;74.22;97763.52;1694769;85;21143;-75
2021/09/12 00:20:57;;;;;;;10.08;6.42;;;;;;;12.93;74.21;97762.25;1699415;83;21076;-75
2021/09/12 00:23:23;;;;;;;10.18;6.35;;;;;;;12.92;74.06;97760.52;1710164;83;22017;-75
2021/09/12 00:25:50;;;;;;;8.95;6.33;;;;;;;12.93;73.73;97759.59;1693065;85;21056;-75
2021/09/12 00:28:16;;;;;;;10.63;6.80;;;;;;;12.91;73.26;97759.65;1681803;83;20990;-75
2021/09/12 00:30:43;;;;;;;13.45;7.03;;;;;;;12.88;73.34;97753.12;1694543;85;21065;-75
2021/09/12 00:33:09;;;;;;;9.53;6.50;;;;;;;12.89;73.98;97761.52;1694546;85;20954;-75
2021/09/12 00:35:36;;;;;;;10.23;7.12;;;;;;;12.89;73.34;97759.31;1694412;85;21005;-75
2021/09/12 00:38:02;;;;;;;11.50;6.92;;;;;;;12.87;73.33;97757.20;1692344;85;21005;-75
2021/09/12 00:40:29;;;;;;;9.53;6.70;;;;;;;12.83;73.23;97755.59;1684196;85;20991;-75
2021/09/12 00:42:55;;;;;;;8.78;6.58;;;;;;;12.77;74.26;97754.05;1684935;85;21523;-74
2021/09/12 00:45:22;;;;;;;9.63;6.87;;;;;;;12.74;73.89;97759.52;1690045;84;21056;-74
2021/09/12 00:47:49;;;;;;;8.75;6.72;;;;;;;12.69;76.09;97755.71;1707126;84;21046;-75
2021/09/12 00:50:16;;;;;;;10.20;6.47;;;;;;;12.65;74.57;97754.10;1693458;84;21061;-75
2021/09/12 00:52:46;;;;;;;13.43;7.35;;;;;;;12.62;74.85;97748.45;1666899;85;21452;-75
2021/09/12 00:55:14;;;;;;;8.20;7.03;;;;;;;12.59;75.19;97743.28;1687359;84;20980;-76
2021/09/12 00:57:45;;;;;;;10.13;6.55;;;;;;;12.56;74.53;97743.40;1696888;84;21618;-75
2021/09/12 01:00:13;;;;;;;9.83;6.67;;;;;;;12.54;74.32;97750.55;1687433;84;21007;-75
2021/09/12 01:02:40;;;;;;;10.63;6.95;;;;;;;12.51;74.63;97746.72;1684909;85;21433;-76
2021/09/12 01:05:09;;;;;;;8.90;6.50;;;;;;;12.49;76.60;97750.76;1684147;85;20982;-75
2021/09/12 01:07:40;;;;;;;8.95;6.33;;;;;;;12.45;76.91;97743.84;1684633;85;21025;-75
2021/09/12 01:10:10;;;;;;;8.53;6.55;;;;;;;12.43;76.84;97744.83;1684965;84;21447;-75
2021/09/12 01:12:37;;;;;;;9.45;6.40;;;;;;;12.38;77.37;97740.56;1685251;84;21042;-75
2021/09/12 01:15:07;;;;;;;10.35;6.92;;;;;;;12.43;75.75;97739.52;1684864;85;21009;-75
2021/09/12 01:17:34;;;;;;;8.28;5.90;;;;;;;12.47;75.64;97748.64;1683294;85;21041;-75
2021/09/12 01:20:01;;;;;;;9.95;5.87;;;;;;;12.47;76.13;97739.80;1683269;85;21007;-75
2021/09/12 01:22:29;;;;;;;8.90;6.20;;;;;;;12.46;76.27;97742.91;1683778;85;21424;-75
2021/09/12 01:24:55;;;;;;;10.30;6.08;;;;;;;12.45;76.06;97744.32;1683400;85;21415;-75
2021/09/12 01:27:21;;;;;;;8.55;5.75;;;;;;;12.42;76.79;97740.00;1683366;85;21105;-75
2021/09/12 01:29:48;;;;;;;13.35;6.58;;;;;;;12.40;76.39;97736.52;1685087;84;20989;-75
2021/09/12 01:32:14;;;;;;;11.12;6.42;;;;;;;12.37;76.88;97745.97;1684933;85;21044;-75
2021/09/12 01:34:41;;;;;;;9.13;6.00;;;;;;;12.37;76.22;97741.50;1684809;85;21452;-75
2021/09/12 01:37:08;;;;;;;10.20;6.45;;;;;;;12.36;76.64;97742.43;1689813;84;20997;-75
2021/09/12 01:39:35;;;;;;;9.33;5.97;;;;;;;12.37;76.10;97737.52;1711276;84;21053;-75
2021/09/12 01:42:01;;;;;;;7.87;5.97;;;;;;;12.37;76.55;97741.50;1709636;84;21044;-75
2021/09/12 01:44:28;;;;;;;11.95;6.25;;;;;;;12.32;76.33;97730.64;1709787;83;21021;-75
2021/09/12 01:46:56;;;;;;;10.72;6.72;;;;;;;12.28;76.17;97733.45;1699290;84;20985;-75
2021/09/12 01:49:23;;;;;;;10.82;6.20;;;;;;;12.25;76.76;97733.56;1700582;84;20974;-75
2021/09/12 01:51:52;;;;;;;9.15;6.80;;;;;;;12.22;76.20;97730.17;1709802;84;21482;-75
2021/09/12 01:54:20;;;;;;;10.78;6.87;;;;;;;12.13;77.30;97730.94;1709803;84;21415;-76
2021/09/12 01:56:48;;;;;;;10.03;6.42;;;;;;;12.07;77.01;97734.30;1709922;84;21026;-76
2021/09/12 01:59:14;;;;;;;8.80;6.15;;;;;;;12.03;77.75;97731.36;1686514;83;21005;-76
2021/09/12 02:01:41;;;;;;;9.03;6.50;;;;;;;11.97;77.93;97724.03;1673506;84;21494;-76
2021/09/12 02:04:08;;;;;;;11.15;6.35;;;;;;;11.95;77.41;97725.87;1682781;83;21001;-76
2021/09/12 02:06:34;;;;;;;9.10;6.08;;;;;;;11.91;78.67;97728.72;1682578;84;21037;-76
2021/09/12 02:09:01;;;;;;;8.88;6.20;;;;;;;11.88;78.09;97727.05;1709768;84;21512;-76
2021/09/12 02:11:27;;;;;;;9.73;6.60;;;;;;;11.85;78.16;97731.14;1686955;83;21003;-76
2021/09/12 02:13:54;;;;;;;12.20;7.40;;;;;;;11.80;78.53;97723.37;1681437;85;21468;-76
2021/09/12 02:16:22;;;;;;;8.75;6.00;;;;;;;11.72;79.73;97727.62;1681253;84;21011;-76
2021/09/12 02:18:49;;;;;;;8.43;5.47;;;;;;;11.72;79.24;97728.95;1681503;85;21062;-76
2021/09/12 02:21:16;;;;;;;10.20;5.90;;;;;;;11.72;79.30;97727.62;1681376;84;21059;-76
2021/09/12 02:23:43;;;;;;;8.95;6.08;;;;;;;11.73;78.84;97728.05;1673153;84;20984;-75
2021/09/12 02:26:09;;;;;;;10.95;6.55;;;;;;;11.75;78.62;97725.31;1667705;84;21384;-75
2021/09/12 02:28:36;;;;;;;10.05;6.00;;;;;;;11.75;78.72;97718.67;1685764;84;21016;-75
2021/09/12 02:31:02;;;;;;;9.53;6.20;;;;;;;11.76;79.36;97720.42;1680977;84;20988;-75
2021/09/12 02:33:29;;;;;;;7.42;5.72;;;;;;;11.80;79.32;97719.39;1709425;84;21392;-76
2021/09/12 02:35:55;;;;;;;12.18;5.50;;;;;;;11.83;79.05;97720.58;1687349;83;20967;-75
2021/09/12 02:38:22;;;;;;;8.23;5.95;;;;;;;11.85;78.95;97719.19;1681486;85;21089;-76
2021/09/12 02:40:48;;;;;;;8.45;5.50;;;;;;;11.87;78.61;97718.66;1677333;85;21446;-76
2021/09/12 02:43:15;;;;;;;7.67;5.92;;;;;;;11.91;78.73;97722.92;1676879;86;21012;-76
2021/09/12 02:45:41;;;;;;;7.72;5.67;;;;;;;11.89;78.87;97718.16;1677248;86;21015;-75
2021/09/12 02:48:08;;;;;;;9.68;5.80;;;;;;;11.85;78.61;97710.77;1653692;85;20988;-75
2021/09/12 02:50:34;;;;;;;9.23;6.12;;;;;;;11.83;78.92;97713.09;1654710;85;21374;-75
2021/09/12 02:53:01;;;;;;;9.35;6.45;;;;;;;11.80;78.59;97710.09;1673755;85;21019;-76
2021/09/12 02:55:27;;;;;;;9.05;5.97;;;;;;;11.81;78.01;97711.81;1646839;85;21012;-75
2021/09/12 02:57:54;;;;;;;8.15;6.10;;;;;;;11.77;77.86;97713.30;1652603;85;21058;-75
2021/09/12 03:00:20;;;;;;;10.40;6.05;;;;;;;11.74;77.53;97715.63;1673303;85;21015;-75
2021/09/12 03:02:47;;;;;;;11.63;6.20;;;;;;;11.69;78.09;97714.48;1639399;85;21048;-75
2021/09/12 03:05:14;;;;;;;12.55;6.33;;;;;;;11.60;78.82;97711.73;1641031;85;21036;-75
2021/09/12 03:07:40;;;;;;;9.98;6.62;;;;;;;11.57;78.15;97720.25;1677364;85;21484;-75
2021/09/12 03:10:08;;;;;;;7.60;6.00;;;;;;;11.51;78.42;97720.48;1677430;85;21017;-75
2021/09/12 03:12:34;;;;;;;10.93;6.08;;;;;;;11.44;78.21;97719.41;1676742;85;21199;-76
2021/09/12 03:15:01;;;;;;;10.25;6.03;;;;;;;11.41;77.98;97719.51;1676205;85;21004;-76
2021/09/12 03:17:27;;;;;;;8.23;6.03;;;;;;;11.37;79.06;97721.86;1651842;85;20996;-76
2021/09/12 03:19:54;;;;;;;9.08;6.40;;;;;;;11.35;78.46;97727.22;1676557;85;21011;-75
2021/09/12 03:22:20;;;;;;;10.93;6.42;;;;;;;11.33;79.55;97727.75;1677387;85;21033;-75
2021/09/12 03:24:47;;;;;;;8.75;6.67;;;;;;;11.32;79.97;97726.48;1677311;85;21011;-75
2021/09/12 03:27:13;;;;;;;12.18;6.55;;;;;;;11.29;79.64;97724.80;1677332;85;21031;-75
2021/09/12 03:29:40;;;;;;;9.15;6.47;;;;;;;11.27;78.91;97725.78;1665841;85;21043;-74
2021/09/12 03:32:06;;;;;;;11.45;7.00;;;;;;;11.24;78.45;97718.80;1677325;85;21003;-75
2021/09/12 03:34:33;;;;;;;9.35;5.58;;;;;;;11.24;78.06;97721.94;1677503;85;21465;-75
2021/09/12 03:36:59;;;;;;;9.58;7.37;;;;;;;11.22;79.67;97725.97;1662246;85;21032;-75
2021/09/12 03:39:26;;;;;;;11.70;7.25;;;;;;;11.19;79.63;97718.98;1659117;85;21350;-75
2021/09/12 03:41:52;;;;;;;8.35;6.33;;;;;;;11.16;79.83;97711.13;1693480;84;21409;-74
2021/09/12 03:44:19;;;;;;;12.65;6.85;;;;;;;11.16;79.54;97714.23;1685072;85;20995;-75
2021/09/12 03:46:46;;;;;;;10.55;6.90;;;;;;;11.16;79.67;97712.91;1684845;85;21161;-74
2021/09/12 03:49:12;;;;;;;11.03;6.67;;;;;;;11.18;79.79;97712.41;1684978;85;20960;-74
2021/09/12 03:51:39;;;;;;;10.95;7.17;;;;;;;11.20;80.28;97710.10;1685031;85;21030;-74
2021/09/12 03:54:05;;;;;;;9.80;6.40;;;;;;;11.22;79.35;97713.55;1684790;85;20972;-74
2021/09/12 03:56:31;;;;;;;12.25;7.40;;;;;;;11.27;79.42;97717.38;1684980;85;21519;-74
2021/09/12 03:58:58;;;;;;;9.98;7.40;;;;;;;11.32;79.40;97709.23;1684782;84;20962;-74
2021/09/12 04:01:24;;;;;;;12.63;7.55;;;;;;;11.33;79.33;97715.81;1684803;85;21056;-74
2021/09/12 04:03:51;;;;;;;10.10;7.03;;;;;;;11.38;79.34;97712.13;1684310;84;21018;-74
2021/09/12 04:06:17;;;;;;;14.58;8.13;;;;;;;11.42;79.42;97712.42;1690449;84;21037;-75
2021/09/12 04:08:44;;;;;;;14.93;8.55;;;;;;;11.43;79.49;97712.38;1700725;84;21053;-74
2021/09/12 04:11:10;;;;;;;11.38;7.62;;;;;;;11.45;79.29;97717.59;1693067;84;21009;-75
2021/09/12 04:13:37;;;;;;;13.03;8.15;;;;;;;11.49;79.34;97717.44;1713680;84;21451;-75
2021/09/12 04:16:04;;;;;;;13.58;9.38;;;;;;;11.53;79.38;97722.61;1712274;84;21001;-75
2021/09/12 04:18:31;;;;;;;14.15;8.30;;;;;;;11.56;79.15;97719.85;1713548;84;20982;-74
2021/09/12 04:20:57;;;;;;;12.68;8.43;;;;;;;11.55;78.92;97723.44;1713359;84;21041;-74
2021/09/12 04:23:24;;;;;;;17.57;8.50;;;;;;;11.51;78.71;97721.37;1686160;84;20988;-74
2021/09/12 04:25:50;;;;;;;13.85;8.30;;;;;;;11.49;78.58;97729.37;1673606;86;21415;-74
2021/09/12 04:28:17;;;;;;;14.63;9.18;;;;;;;11.43;78.86;97728.30;1678958;85;20957;-74
2021/09/12 04:30:43;;;;;;;14.35;9.28;;;;;;;11.43;79.37;97720.33;1684768;84;21427;-74
2021/09/12 04:33:10;;;;;;;13.40;8.28;;;;;;;11.43;78.54;97725.64;1702629;84;20965;-74
2021/09/12 04:35:37;;;;;;;16.82;8.90;;;;;;;11.41;78.20;97720.83;1684885;85;21101;-74
2021/09/12 04:38:03;;;;;;;15.30;7.70;;;;;;;11.41;78.19;97731.45;1709109;84;20985;-74
2021/09/12 04:40:31;;;;;;;12.63;7.08;;;;;;;11.41;78.27;97724.81;1692155;84;21028;-74
2021/09/12 04:42:58;;;;;;;16.00;7.90;;;;;;;11.41;78.25;97734.58;1681319;85;21038;-74
2021/09/12 04:45:24;;;;;;;15.88;8.35;;;;;;;11.42;78.62;97734.50;1681554;85;21037;-75
2021/09/12 04:47:51;;;;;;;12.10;7.78;;;;;;;11.42;79.29;97729.67;1681630;85;20994;-75
2021/09/12 04:50:18;;;;;;;10.35;7.87;;;;;;;11.38;79.32;97733.36;1681496;85;21046;-75
2021/09/12 04:52:44;;;;;;;14.30;8.08;;;;;;;11.37;79.20;97737.78;1680834;84;21015;-75
2021/09/12 04:55:11;;;;;;;14.78;8.05;;;;;;;11.39;78.92;97739.06;1683233;84;21075;-75
2021/09/12 04:57:37;;;;;;;13.62;7.85;;;;;;;11.39;79.34;97741.27;1699976;84;20978;-74
2021/09/12 05:00:06;;;;;;;9.30;6.80;;;;;;;11.42;78.52;97740.28;1681536;85;21001;-77
2021/09/12 05:02:32;;;;;;;11.83;7.58;;;;;;;11.47;78.40;97745.80;1666378;85;21023;-78
2021/09/12 05:04:58;;;;;;;10.90;7.08;;;;;;;11.51;78.76;97736.41;1679631;85;20978;-78
2021/09/12 05:07:25;;;;;;;14.30;6.95;;;;;;;11.53;78.21;97736.76;1681642;85;21439;-78
2021/09/12 05:09:51;;;;;;;10.60;7.20;;;;;;;11.56;78.69;97738.43;1681398;85;21078;-78
2021/09/12 05:12:18;;;;;;;11.43;7.37;;;;;;;11.59;78.36;97738.33;1681409;85;20977;-78
2021/09/12 05:14:44;;;;;;;11.45;7.20;;;;;;;11.63;78.10;97733.31;1680789;85;20999;-79
2021/09/12 05:17:11;;;;;;;10.10;6.87;;;;;;;11.69;78.26;97741.03;1681545;85;21083;-79
2021/09/12 05:19:37;;;;;;;12.58;7.03;;;;;;;11.73;77.83;97738.66;1681542;85;21469;-79
2021/09/12 05:22:06;;;;;;;11.45;7.08;;;;;;;11.81;78.04;97747.66;1682058;84;21022;-78
2021/09/12 05:24:32;;;;;;;14.30;7.10;;;;;;;11.84;78.34;97737.38;1680630;85;21434;-78
2021/09/12 05:26:59;;;;;;;12.70;6.92;;;;;;;11.88;77.76;97738.52;1681274;85;21011;-78
2021/09/12 05:29:25;;;;;;;10.53;6.78;;;;;;;11.93;77.86;97743.66;1681271;85;20955;-79
2021/09/12 05:31:52;;;;;;;8.10;7.05;;;;;;;11.97;78.58;97743.95;1680953;84;21463;-78
2021/09/12 05:34:19;;;;;;;12.65;7.03;;;;;;;12.01;78.00;97743.36;1681219;85;20954;-78
2021/09/12 05:36:45;;;;;;;10.88;6.55;;;;;;;12.05;77.73;97744.13;1681402;85;21029;-78
2021/09/12 05:39:12;;;;;;;10.23;6.35;;;;;;;12.08;77.84;97743.53;1681182;85;20995;-78
2021/09/12 05:41:38;;;;;;;10.08;7.17;;;;;;;12.14;77.79;97742.44;1679405;85;21042;-78
2021/09/12 05:44:05;;;;;;;7.65;6.10;;;;;;;12.19;78.11;97741.79;1679564;85;21014;-79
2021/09/12 05:46:34;;;;;;;10.15;6.53;;;;;;;12.26;77.87;97743.73;1692908;84;21060;-78
2021/09/12 05:49:00;;;;;;;9.90;6.37;;;;;;;12.33;77.82;97743.88;1686008;83;21006;-78
2021/09/12 05:51:29;;;;;;;8.38;6.00;;;;;;;12.40;77.78;97742.71;1689585;84;21044;-79
2021/09/12 05:53:55;;;;;;;11.18;6.70;;;;;;;12.52;77.07;97740.46;1679492;85;20985;-78
2021/09/12 05:56:21;;;;;;;9.90;6.33;;;;;;;12.64;77.02;97743.08;1679551;85;21016;-78
2021/09/12 05:58:48;;;;;;;9.23;6.30;;;;;;;12.72;76.99;97746.28;1679593;85;21016;-78
2021/09/12 06:01:14;;;;;;;8.88;6.20;;;;;;;12.85;76.79;97746.63;1679300;85;21533;-79
2021/09/12 06:03:41;;;;;;;7.78;5.62;;;;;;;12.97;76.75;97745.69;1679575;85;21028;-79
2021/09/12 06:06:08;;;;;;;9.65;5.95;;;;;;;13.07;76.58;97749.22;1679428;85;20988;-79
2021/09/12 06:08:34;;;;;;;7.83;6.00;;;;;;;13.20;76.38;97746.00;1679618;85;21008;-79
2021/09/12 06:11:01;;;;;;;10.10;6.10;;;;;;;13.30;76.38;97748.67;1683045;84;21006;-78
2021/09/12 06:13:27;;;;;;;8.13;5.92;;;;;;;13.44;76.08;97747.16;1680458;84;21413;-79
2021/09/12 06:15:54;;;;;;;9.00;5.97;;;;;;;13.56;76.07;97745.32;1707840;84;21052;-78
2021/09/12 06:18:20;;;;;;;8.08;5.95;;;;;;;13.70;75.98;97747.83;1707853;83;21090;-78
2021/09/12 06:20:47;;;;;;;10.20;6.60;;;;;;;13.82;75.76;97748.56;1690231;84;21035;-79
2021/09/12 06:23:13;;;;;;;9.80;6.40;;;;;;;13.97;75.62;97751.45;1679398;85;20997;-78
2021/09/12 06:25:40;;;;;;;9.18;6.30;;;;;;;14.08;75.32;97747.80;1679479;85;20999;-78
2021/09/12 06:28:06;;;;;;;8.98;6.30;;;;;;;14.18;74.90;97753.56;1679646;85;21568;-79
2021/09/12 06:30:33;;;;;;;10.55;6.40;;;;;;;14.27;74.41;97746.91;1679360;85;20968;-79
2021/09/12 06:32:59;;;;;;;8.73;6.37;;;;;;;14.35;73.67;97751.86;1679705;85;21446;-80
2021/09/12 06:35:26;;;;;;;8.30;6.47;;;;;;;14.43;73.85;97751.48;1679713;84;20970;-80
2021/09/12 06:37:52;;;;;;;8.78;6.30;;;;;;;14.52;73.62;97749.70;1683976;84;21530;-78
2021/09/12 06:40:19;;;;;;;9.80;6.17;;;;;;;14.60;73.14;97750.65;1677780;85;21060;-80
2021/09/12 06:42:45;;;;;;;12.07;6.40;;;;;;;14.69;73.23;97750.68;1664850;84;21047;-78
2021/09/12 06:45:12;;;;;;;7.78;6.22;;;;;;;14.77;72.75;97748.50;1650052;87;21019;-79
2021/09/12 06:47:38;;;;;;;9.38;6.97;;;;;;;14.86;72.33;97750.70;1650068;87;20981;-79
2021/09/12 06:50:06;;;;;;;9.53;6.35;;;;;;;14.95;72.13;97753.84;1659718;85;21000;-79
2021/09/12 06:52:33;;;;;;;9.58;6.47;;;;;;;15.05;71.91;97752.42;1666470;85;21005;-80
2021/09/12 06:55:00;;;;;;;8.85;6.62;;;;;;;15.14;71.30;97753.28;1622265;88;21080;-79
2021/09/12 06:57:27;;;;;;;10.88;6.37;;;;;;;15.25;71.55;97754.52;1621922;88;21089;-78
2021/09/12 06:59:54;;;;;;;7.97;5.53;;;;;;;15.36;71.41;97757.97;1645550;86;21000;-77
2021/09/12 07:02:20;;;;;;;8.50;5.83;;;;;;;15.45;71.20;97750.81;1677422;85;21040;-78
2021/09/12 07:04:47;;;;;;;10.80;6.30;;;;;;;15.56;70.76;97761.77;1667165;85;21016;-78
2021/09/12 07:07:13;;;;;;;11.33;6.22;;;;;;;15.65;70.18;97763.07;1650100;87;21008;-79
2021/09/12 07:09:40;;;;;;;8.45;5.47;;;;;;;15.74;70.29;97755.02;1658201;85;20977;-78
2021/09/12 07:12:08;;;;;;;15.28;10.85;;;;;;;15.85;69.95;97757.11;1677238;85;21072;-78
2021/09/12 07:14:35;;;;;;;10.72;7.30;;;;;;;15.94;69.71;97751.30;1650958;85;21012;-79
2021/09/12 07:17:01;;;;;;;9.73;6.05;;;;;;;16.06;69.64;97758.23;1624401;87;20989;-78
2021/09/12 07:19:28;;;;;;;9.48;6.30;;;;;;;16.17;69.38;97757.17;1627674;85;20968;-78
2021/09/12 07:21:54;;;;;;;8.38;5.85;;;;;;;16.26;69.14;97758.92;1649977;87;21048;-79
2021/09/12 07:24:21;;;;;;;8.13;5.55;;;;;;;16.34;68.25;97750.87;1628663;84;21535;-78
2021/09/12 07:26:47;;;;;;;8.25;5.78;;;;;;;16.42;67.90;97747.75;1673058;86;20991;-78
2021/09/12 07:29:14;;;;;;;9.58;5.22;;;;;;;16.54;67.79;97753.33;1671650;86;21085;-79
2021/09/12 07:31:41;;;;;;;11.68;5.90;;;;;;;16.63;67.27;97755.48;1649914;87;21000;-78
2021/09/12 07:34:07;;;;;;;6.97;4.90;;;;;;;16.74;67.49;97753.52;1650054;87;21020;-79
2021/09/12 07:36:33;;;;;;;8.03;5.85;;;;;;;16.83;67.36;97755.66;1629398;86;21001;-78
2021/09/12 07:39:02;;;;;;;9.53;5.70;;;;;;;16.93;66.92;97762.65;1640070;85;20989;-80
2021/09/12 07:41:30;;;;;;;8.10;5.33;;;;;;;17.01;66.80;97755.03;1669376;85;21029;-80
2021/09/12 07:43:57;;;;;;;7.30;5.53;;;;;;;17.12;66.63;97751.75;1673448;85;21463;-80
2021/09/12 07:46:23;;;;;;;8.40;5.30;;;;;;;17.21;66.42;97755.67;1681415;85;21052;-79
2021/09/12 07:48:50;;;;;;;7.22;5.35;;;;;;;17.29;65.57;97743.16;1681681;85;21517;-79
2021/09/12 07:51:17;;;;;;;8.30;5.62;;;;;;;17.37;65.74;97748.91;1681295;85;21044;-78
2021/09/12 07:53:43;;;;;;;10.98;6.72;;;;;;;17.47;65.14;97745.17;1680752;85;21421;-78
2021/09/12 07:56:10;;;;;;;10.43;5.72;;;;;;;17.57;65.18;97749.96;1681535;85;20975;-79
2021/09/12 07:58:36;;;;;;;8.28;6.00;;;;;;;17.66;64.23;97738.17;1681377;85;21110;-79
2021/09/12 08:01:03;;;;;;;11.03;6.17;;;;;;;17.74;64.05;97739.52;1681351;85;21016;-78
2021/09/12 08:03:29;;;;;;;8.20;5.62;;;;;;;17.82;64.05;97742.59;1682415;84;21024;-80
2021/09/12 08:05:56;;;;;;;7.28;5.80;;;;;;;17.89;63.72;97741.73;1689373;84;21001;-79
2021/09/12 08:08:23;;;;;;;6.55;5.40;;;;;;;17.95;63.41;97741.33;1680854;85;20997;-80
2021/09/12 08:10:50;;;;;;;9.40;5.42;;;;;;;18.01;62.69;97746.28;1681281;85;20968;-80
2021/09/12 08:13:16;;;;;;;7.58;5.45;;;;;;;18.11;62.55;97748.41;1681296;85;21546;-80
2021/09/12 08:15:43;;;;;;;7.95;5.58;;;;;;;18.20;61.58;97750.50;1681550;85;20988;-80
2021/09/12 08:18:09;;;;;;;8.08;5.67;;;;;;;18.30;62.38;97749.41;1681429;85;20992;-80
2021/09/12 08:20:36;;;;;;;8.70;5.97;;;;;;;18.37;61.63;97745.37;1681346;85;21011;-79
2021/09/12 08:23:02;;;;;;;8.40;5.90;;;;;;;18.47;62.23;97747.83;1681559;85;21024;-79
2021/09/12 08:25:29;;;;;;;9.35;5.70;;;;;;;18.56;61.33;97746.34;1681615;85;21398;-79
2021/09/12 08:27:56;;;;;;;8.48;6.10;;;;;;;18.65;61.72;97745.36;1681508;85;21024;-81
2021/09/12 08:30:24;;;;;;;7.53;5.80;;;;;;;18.74;61.43;97746.94;1685946;84;21033;-81
2021/09/12 08:32:51;;;;;;;9.68;6.15;;;;;;;18.85;59.78;97741.35;1680065;85;21038;-81
2021/09/12 08:35:17;;;;;;;11.25;6.22;;;;;;;18.94;60.16;97739.86;1681379;85;21074;-81
2021/09/12 08:37:43;;;;;;;12.07;6.05;;;;;;;19.00;60.58;97733.59;1681606;85;21014;-81
2021/09/12 08:40:11;;;;;;;9.70;6.03;;;;;;;19.07;59.88;97730.50;1676540;85;20965;-81
2021/09/12 08:42:40;;;;;;;11.08;6.25;;;;;;;19.12;59.54;97727.89;1664856;85;21517;-81
2021/09/12 08:45:10;;;;;;;9.13;6.03;;;;;;;19.17;59.75;97724.00;1652230;87;21540;-80
2021/09/12 08:47:37;;;;;;;8.10;6.08;;;;;;;19.25;59.83;97729.70;1652396;87;21050;-79
2021/09/12 08:50:04;;;;;;;6.87;5.92;;;;;;;19.32;59.30;97724.77;1661312;85;20974;-79
2021/09/12 08:52:31;;;;;;;9.90;6.40;;;;;;;19.43;57.47;97722.68;1667564;85;20982;-80
2021/09/12 08:54:57;;;;;;;10.32;6.15;;;;;;;19.54;58.61;97724.11;1695216;84;21423;-80
2021/09/12 08:57:24;;;;;;;9.13;6.55;;;;;;;19.64;57.41;97716.27;1697261;84;20958;-80
2021/09/12 08:59:51;;;;;;;9.25;6.03;;;;;;;19.75;57.31;97716.82;1702229;84;21005;-79
2021/09/12 09:02:27;;;;;;;9.95;6.22;;;;;;;19.84;57.38;97718.85;1680666;85;20991;-79
2021/09/12 09:05:03;;;;;;;9.45;5.80;;;;;;;19.92;57.34;97717.82;1681408;85;21031;-79
2021/09/12 09:07:32;;;;;;;10.05;6.53;;;;;;;19.97;56.96;97715.28;1681435;85;20999;-79
2021/09/12 09:10:01;;;;;;;7.97;5.67;;;;;;;19.99;55.51;97714.70;1680144;84;21049;-79
2021/09/12 09:12:35;;;;;;;8.50;6.15;;;;;;;20.05;56.11;97715.59;1673988;85;21010;-79
2021/09/12 09:15:12;;;;;;;8.93;6.20;;;;;;;20.12;55.80;97714.19;1652618;87;21488;-79
2021/09/12 09:17:51;;;;;;;9.33;6.00;;;;;;;20.22;56.16;97713.52;1652537;87;21047;-78
2021/09/12 09:20:29;;;;;;;9.83;6.00;;;;;;;20.28;55.50;97711.71;1688815;84;21403;-78
2021/09/12 09:22:59;;;;;;;9.65;6.75;;;;;;;20.35;54.28;97716.16;1680697;85;21010;-79
2021/09/12 09:25:29;;;;;;;7.25;5.55;;;;;;;20.44;55.53;97709.58;1680088;85;21388;-78
2021/09/12 09:28:06;;;;;;;11.15;6.20;;;;;;;20.54;55.19;97710.23;1681393;85;21020;-78
2021/09/12 09:30:51;;;;;;;10.10;6.37;;;;;;;20.66;54.08;97707.98;1680498;85;21043;-79
2021/09/12 09:33:29;;;;;;;7.62;5.67;;;;;;;20.80;54.50;97704.73;1681172;85;21066;-79
2021/09/12 09:36:04;;;;;;;6.65;5.50;;;;;;;20.93;51.19;97706.02;1681284;85;21039;-79
2021/09/12 09:38:35;;;;;;;6.97;5.30;;;;;;;21.06;53.12;97700.03;1680770;85;21008;-79
2021/09/12 09:41:12;;;;;;;9.58;5.70;;;;;;;21.16;52.33;97696.14;1668421;86;21017;-79
2021/09/12 09:43:48;;;;;;;8.40;5.60;;;;;;;21.20;50.63;97696.28;1680393;84;20977;-78
2021/09/12 09:46:34;;;;;;;9.90;5.55;;;;;;;21.25;50.68;97691.86;1669351;84;21068;-80
2021/09/12 09:49:24;;;;;;;10.20;6.00;;;;;;;21.30;50.75;97688.82;1686703;84;21097;-79
2021/09/12 09:52:00;;;;;;;9.33;6.12;;;;;;;21.37;51.45;97690.04;1681381;85;21411;-79
2021/09/12 09:54:31;;;;;;;10.40;6.15;;;;;;;21.43;51.03;97690.05;1684117;85;21083;-79
2021/09/12 09:56:59;;;;;;;8.15;6.33;;;;;;;21.54;49.84;97690.55;1684839;85;20965;-80
2021/09/12 09:59:29;;;;;;;6.97;6.00;;;;;;;21.65;50.56;97681.11;1684726;85;21049;-79
2021/09/12 10:01:57;;;;;;;13.58;6.03;;;;;;;21.72;50.38;97678.30;1684626;85;21039;-78
2021/09/12 10:04:28;;;;;;;7.80;5.65;;;;;;;21.85;50.41;97680.85;1684975;85;21125;-77
2021/09/12 10:06:57;;;;;;;8.90;5.87;;;;;;;21.92;49.08;97673.12;1684812;85;21064;-78
2021/09/12 10:09:24;;;;;;;8.68;6.22;;;;;;;22.02;49.61;97675.94;1689168;84;21124;-74
2021/09/12 10:11:55;;;;;;;8.75;5.90;;;;;;;22.18;49.31;97677.37;1685407;84;21525;-73
2021/09/12 10:14:51;;;;;;;8.60;6.47;;;;;;;22.29;48.75;97672.80;1684917;84;21550;-74
2021/09/12 10:17:25;;;;;;;8.68;5.75;;;;;;;22.45;48.88;97674.72;1680616;85;21355;-75
2021/09/12 10:20:12;;;;;;;9.05;5.60;;;;;;;22.57;48.53;97665.59;1680950;84;21144;-74
2021/09/12 10:22:56;;;;;;;8.53;5.70;;;;;;;22.64;48.25;97660.54;1682376;85;21549;-74
2021/09/12 10:25:30;;;;;;;11.70;8.18;;;;;;;22.72;48.11;97659.41;1658420;85;21041;-75
2021/09/12 10:28:06;;;;;;;8.35;5.67;;;;;;;22.85;47.01;97661.04;1684134;85;20992;-74
2021/09/12 10:30:42;;;;;;;9.93;6.35;;;;;;;22.98;44.53;97652.73;1680434;85;21079;-74
2021/09/12 10:33:19;;;;;;;7.45;5.58;;;;;;;23.32;46.86;97643.92;1671090;86;20958;-74
2021/09/12 10:35:54;;;;;;;7.75;5.75;;;;;;;23.32;46.86;97643.92;1636705;88;21003;-74
2021/09/12 10:38:31;;;;;;;7.55;5.65;;;;;;;24.08;46.82;97642.25;1675063;85;21055;-75
2021/09/12 10:41:03;;;;;;;9.58;5.78;;;;;;;25.40;42.28;97637.28;1682291;84;21044;-74
2021/09/12 10:43:35;;;;;;;7.97;5.10;;;;;;;26.82;42.73;97639.17;1686581;84;20994;-76
2021/09/12 10:46:10;;;;;;;7.17;6.28;;;;;;;27.99;39.13;97623.03;1682373;84;21026;-75
2021/09/12 10:48:47;;;;;;;6.85;6.15;;;;;;;29.16;39.18;97628.06;1684556;85;21014;-75
2021/09/12 10:51:22;;;;;;;6.45;5.45;;;;;;;30.02;32.67;97623.84;1673885;84;20974;-76
2021/09/12 10:54:01;;;;;;;9.05;6.22;;;;;;;30.89;34.32;97621.05;1678445;85;21032;-75
2021/09/12 10:56:31;;;;;;;8.05;5.50;;;;;;;31.70;33.39;97609.91;1680122;85;20986;-73
2021/09/12 10:59:07;;;;;;;9.20;6.30;;;;;;;32.41;33.53;97613.91;1655945;87;21079;-74
2021/09/12 11:01:42;;;;;;;7.20;5.60;;;;;;;32.98;31.64;97615.92;1684484;85;21410;-74
2021/09/12 11:04:12;;;;;;;8.23;6.12;;;;;;;33.37;28.46;97609.58;1684857;85;21084;-75
2021/09/12 11:06:45;;;;;;;8.73;6.08;;;;;;;33.78;29.03;97608.75;1684267;85;21022;-75
2021/09/12 11:09:23;;;;;;;;;;;;;;;34.14;28.31;97623.81;1687221;84;21005;-76
2021/09/12 11:11:58;;;;;;;7.25;6.45;;;;;;;34.19;27.88;97610.28;1689102;84;20100;-76
2021/09/12 11:14:27;;;;;;;6.83;5.90;;;;;;;34.54;28.36;97610.69;1683641;85;21461;-74
2021/09/12 11:16:54;;;;;;;8.15;5.60;;;;;;;34.94;27.91;97612.62;1683293;85;21465;-76
2021/09/12 11:19:21;;;;;;;7.90;6.10;;;;;;;35.21;25.25;97612.64;1683842;84;21448;-75
2021/09/12 11:21:51;;;;;;;7.92;5.97;;;;;;;35.32;25.86;97612.52;1685272;84;21007;-76
2021/09/12 11:24:22;;;;;;;6.20;5.50;;;;;;;35.59;26.22;97609.67;1686773;84;21013;-75
2021/09/12 11:26:54;;;;;;;6.17;5.45;;;;;;;35.93;25.95;97599.40;1685568;84;21005;-75
2021/09/12 11:29:34;;;;;;;7.05;5.65;;;;;;;36.05;24.59;97605.92;1680351;84;21538;-75
2021/09/12 11:32:18;;;;;;;11.22;6.08;;;;;;;35.85;22.37;97607.91;1685419;84;21047;-75
2021/09/12 11:34:42;;;;;;;6.35;5.75;;;;;;;35.77;24.47;97606.25;1680836;84;21072;-75